sensor_id;sensor_type;location;lat;lon;timestamp;P1;durP1;ratioP1;P2;durP2;ratioP2
15669;SDS011;18524;45.190;5.732;2024-02-04T00:04:46;30.63;;;23.43;;
15669;SDS011;18524;45.190;5.732;2024-02-04T00:09:36;29.70;;;22.63;;
15669;SDS011;18524;45.190;5.732;2024-02-04T00:14:27;28.53;;;21.97;;
15669;SDS011;18524;45.190;5.732;2024-02-04T00:19:17;32.40;;;23.27;;
15669;SDS011;18524;45.190;5.732;2024-02-04T00:24:07;31.60;;;23.67;;
15669;SDS011;18524;45.190;5.732;2024-02-04T00:28:58;32.80;;;23.80;;
15669;SDS011;18524;45.190;5.732;2024-02-04T00:33:48;32.60;;;23.97;;
15669;SDS011;18524;45.190;5.732;2024-02-04T00:38:38;33.53;;;24.63;;
15669;SDS011;18524;45.190;5.732;2024-02-04T00:43:29;32.97;;;24.87;;
15669;SDS011;18524;45.190;5.732;2024-02-04T00:48:19;34.47;;;24.37;;
15669;SDS011;18524;45.190;5.732;2024-02-04T00:53:09;31.17;;;23.67;;
15669;SDS011;18524;45.190;5.732;2024-02-04T00:58:00;35.10;;;25.77;;
15669;SDS011;18524;45.190;5.732;2024-02-04T01:02:52;32.40;;;24.07;;
15669;SDS011;18524;45.190;5.732;2024-02-04T01:07:42;34.57;;;24.87;;
15669;SDS011;18524;45.190;5.732;2024-02-04T01:12:33;35.47;;;25.70;;
15669;SDS011;18524;45.190;5.732;2024-02-04T01:17:23;35.70;;;25.67;;
15669;SDS011;18524;45.190;5.732;2024-02-04T01:22:13;35.27;;;25.90;;
15669;SDS011;18524;45.190;5.732;2024-02-04T01:27:04;36.43;;;24.93;;
15669;SDS011;18524;45.190;5.732;2024-02-04T01:31:54;35.77;;;25.03;;
15669;SDS011;18524;45.190;5.732;2024-02-04T01:36:44;34.73;;;24.90;;
15669;SDS011;18524;45.190;5.732;2024-02-04T01:41:35;35.30;;;24.90;;
15669;SDS011;18524;45.190;5.732;2024-02-04T01:46:25;33.93;;;24.50;;
15669;SDS011;18524;45.190;5.732;2024-02-04T01:51:16;35.43;;;23.30;;
15669;SDS011;18524;45.190;5.732;2024-02-04T01:56:10;33.57;;;23.67;;
15669;SDS011;18524;45.190;5.732;2024-02-04T02:01:02;33.37;;;23.73;;
15669;SDS011;18524;45.190;5.732;2024-02-04T02:05:53;34.17;;;23.97;;
15669;SDS011;18524;45.190;5.732;2024-02-04T02:10:44;31.80;;;22.77;;
15669;SDS011;18524;45.190;5.732;2024-02-04T02:15:44;33.47;;;24.40;;
15669;SDS011;18524;45.190;5.732;2024-02-04T02:26:10;29.90;;;22.53;;
15669;SDS011;18524;45.190;5.732;2024-02-04T02:31:01;30.63;;;22.47;;
15669;SDS011;18524;45.190;5.732;2024-02-04T02:35:53;32.03;;;23.10;;
15669;SDS011;18524;45.190;5.732;2024-02-04T02:40:49;30.67;;;22.40;;
15669;SDS011;18524;45.190;5.732;2024-02-04T02:45:44;32.80;;;22.47;;
15669;SDS011;18524;45.190;5.732;2024-02-04T02:50:35;31.80;;;22.87;;
15669;SDS011;18524;45.190;5.732;2024-02-04T02:55:26;33.40;;;23.70;;
15669;SDS011;18524;45.190;5.732;2024-02-04T03:00:16;32.30;;;22.93;;
15669;SDS011;18524;45.190;5.732;2024-02-04T03:05:07;32.87;;;22.90;;
15669;SDS011;18524;45.190;5.732;2024-02-04T03:09:58;48.93;;;25.80;;
15669;SDS011;18524;45.190;5.732;2024-02-04T03:14:48;44.27;;;27.17;;
15669;SDS011;18524;45.190;5.732;2024-02-04T03:19:38;49.37;;;28.10;;
15669;SDS011;18524;45.190;5.732;2024-02-04T03:24:29;48.77;;;27.90;;
15669;SDS011;18524;45.190;5.732;2024-02-04T03:29:19;53.40;;;29.73;;
15669;SDS011;18524;45.190;5.732;2024-02-04T03:34:10;48.37;;;28.10;;
15669;SDS011;18524;45.190;5.732;2024-02-04T03:39:00;46.87;;;28.17;;
15669;SDS011;18524;45.190;5.732;2024-02-04T03:43:51;50.30;;;28.57;;
15669;SDS011;18524;45.190;5.732;2024-02-04T03:48:41;48.13;;;27.90;;
15669;SDS011;18524;45.190;5.732;2024-02-04T03:53:33;48.43;;;29.03;;
15669;SDS011;18524;45.190;5.732;2024-02-04T03:58:23;49.93;;;28.33;;
15669;SDS011;18524;45.190;5.732;2024-02-04T04:03:19;48.37;;;27.97;;
15669;SDS011;18524;45.190;5.732;2024-02-04T04:08:09;51.57;;;27.60;;
15669;SDS011;18524;45.190;5.732;2024-02-04T04:13:00;58.37;;;29.67;;
15669;SDS011;18524;45.190;5.732;2024-02-04T04:17:50;61.90;;;29.83;;
15669;SDS011;18524;45.190;5.732;2024-02-04T04:22:40;56.90;;;29.57;;
15669;SDS011;18524;45.190;5.732;2024-02-04T04:27:31;50.30;;;29.10;;
15669;SDS011;18524;45.190;5.732;2024-02-04T04:32:21;58.63;;;31.23;;
15669;SDS011;18524;45.190;5.732;2024-02-04T04:37:11;57.47;;;30.83;;
15669;SDS011;18524;45.190;5.732;2024-02-04T04:42:02;58.47;;;31.10;;
15669;SDS011;18524;45.190;5.732;2024-02-04T04:46:52;57.97;;;31.67;;
15669;SDS011;18524;45.190;5.732;2024-02-04T04:51:46;65.83;;;33.10;;
15669;SDS011;18524;45.190;5.732;2024-02-04T04:56:39;56.47;;;32.00;;
15669;SDS011;18524;45.190;5.732;2024-02-04T05:01:30;61.60;;;30.00;;
15669;SDS011;18524;45.190;5.732;2024-02-04T05:06:20;52.83;;;28.90;;
15669;SDS011;18524;45.190;5.732;2024-02-04T05:11:11;53.27;;;29.00;;
15669;SDS011;18524;45.190;5.732;2024-02-04T05:16:01;50.87;;;28.33;;
15669;SDS011;18524;45.190;5.732;2024-02-04T05:20:52;59.07;;;29.97;;
15669;SDS011;18524;45.190;5.732;2024-02-04T05:25:42;50.03;;;29.10;;
15669;SDS011;18524;45.190;5.732;2024-02-04T05:30:33;50.50;;;28.37;;
15669;SDS011;18524;45.190;5.732;2024-02-04T05:35:24;53.73;;;28.13;;
15669;SDS011;18524;45.190;5.732;2024-02-04T05:40:14;47.67;;;27.90;;
15669;SDS011;18524;45.190;5.732;2024-02-04T05:45:07;48.33;;;27.83;;
15669;SDS011;18524;45.190;5.732;2024-02-04T05:49:58;50.40;;;28.10;;
15669;SDS011;18524;45.190;5.732;2024-02-04T05:54:48;47.07;;;26.30;;
15669;SDS011;18524;45.190;5.732;2024-02-04T05:59:39;41.07;;;25.63;;
15669;SDS011;18524;45.190;5.732;2024-02-04T06:04:29;45.30;;;25.53;;
15669;SDS011;18524;45.190;5.732;2024-02-04T06:09:19;43.20;;;25.30;;
15669;SDS011;18524;45.190;5.732;2024-02-04T06:14:10;44.33;;;24.93;;
15669;SDS011;18524;45.190;5.732;2024-02-04T06:19:00;46.63;;;27.00;;
15669;SDS011;18524;45.190;5.732;2024-02-04T06:23:50;46.37;;;25.97;;
15669;SDS011;18524;45.190;5.732;2024-02-04T06:28:41;44.63;;;24.80;;
15669;SDS011;18524;45.190;5.732;2024-02-04T06:33:35;52.30;;;27.83;;
15669;SDS011;18524;45.190;5.732;2024-02-04T06:38:26;54.83;;;28.03;;
15669;SDS011;18524;45.190;5.732;2024-02-04T06:43:16;51.10;;;27.93;;
15669;SDS011;18524;45.190;5.732;2024-02-04T06:48:07;52.53;;;28.33;;
15669;SDS011;18524;45.190;5.732;2024-02-04T06:52:57;47.27;;;25.47;;
15669;SDS011;18524;45.190;5.732;2024-02-04T06:57:48;48.13;;;26.07;;
15669;SDS011;18524;45.190;5.732;2024-02-04T07:02:38;54.30;;;28.60;;
15669;SDS011;18524;45.190;5.732;2024-02-04T07:07:29;52.47;;;27.73;;
15669;SDS011;18524;45.190;5.732;2024-02-04T07:12:19;53.97;;;26.90;;
15669;SDS011;18524;45.190;5.732;2024-02-04T07:17:09;57.63;;;29.93;;
15669;SDS011;18524;45.190;5.732;2024-02-04T07:22:01;49.93;;;27.03;;
15669;SDS011;18524;45.190;5.732;2024-02-04T07:26:52;49.60;;;26.87;;
15669;SDS011;18524;45.190;5.732;2024-02-04T07:31:42;49.30;;;27.27;;
15669;SDS011;18524;45.190;5.732;2024-02-04T07:36:33;44.00;;;23.93;;
15669;SDS011;18524;45.190;5.732;2024-02-04T07:41:23;41.93;;;23.07;;
15669;SDS011;18524;45.190;5.732;2024-02-04T07:46:13;37.83;;;20.83;;
15669;SDS011;18524;45.190;5.732;2024-02-04T07:51:04;55.03;;;26.83;;
15669;SDS011;18524;45.190;5.732;2024-02-04T07:55:55;66.03;;;31.43;;
15669;SDS011;18524;45.190;5.732;2024-02-04T08:00:45;56.77;;;28.60;;
15669;SDS011;18524;45.190;5.732;2024-02-04T08:05:35;67.80;;;31.73;;
15669;SDS011;18524;45.190;5.732;2024-02-04T08:10:26;59.10;;;32.03;;
15669;SDS011;18524;45.190;5.732;2024-02-04T08:15:16;60.77;;;30.03;;
15669;SDS011;18524;45.190;5.732;2024-02-04T08:20:07;63.63;;;30.77;;
15669;SDS011;18524;45.190;5.732;2024-02-04T08:24:58;62.17;;;29.73;;
15669;SDS011;18524;45.190;5.732;2024-02-04T08:29:48;65.43;;;28.90;;
15669;SDS011;18524;45.190;5.732;2024-02-04T08:34:39;59.30;;;28.73;;
15669;SDS011;18524;45.190;5.732;2024-02-04T08:39:29;63.73;;;29.70;;
15669;SDS011;18524;45.190;5.732;2024-02-04T08:44:22;59.30;;;28.37;;
15669;SDS011;18524;45.190;5.732;2024-02-04T08:49:13;58.70;;;28.13;;
15669;SDS011;18524;45.190;5.732;2024-02-04T08:54:03;53.40;;;28.03;;
15669;SDS011;18524;45.190;5.732;2024-02-04T08:58:53;52.43;;;26.77;;
15669;SDS011;18524;45.190;5.732;2024-02-04T09:03:44;58.90;;;31.73;;
15669;SDS011;18524;45.190;5.732;2024-02-04T09:08:34;54.73;;;29.37;;
15669;SDS011;18524;45.190;5.732;2024-02-04T09:13:25;52.30;;;27.70;;
15669;SDS011;18524;45.190;5.732;2024-02-04T09:18:15;60.00;;;32.40;;
15669;SDS011;18524;45.190;5.732;2024-02-04T09:23:05;54.43;;;28.27;;
15669;SDS011;18524;45.190;5.732;2024-02-04T09:27:56;52.50;;;28.73;;
15669;SDS011;18524;45.190;5.732;2024-02-04T09:32:46;54.50;;;28.57;;
15669;SDS011;18524;45.190;5.732;2024-02-04T09:37:37;47.77;;;26.17;;
15669;SDS011;18524;45.190;5.732;2024-02-04T09:42:27;46.80;;;25.80;;
15669;SDS011;18524;45.190;5.732;2024-02-04T09:47:20;44.43;;;25.23;;
15669;SDS011;18524;45.190;5.732;2024-02-04T09:52:10;47.40;;;26.13;;
15669;SDS011;18524;45.190;5.732;2024-02-04T09:57:03;48.07;;;26.87;;
15669;SDS011;18524;45.190;5.732;2024-02-04T10:01:54;47.20;;;26.40;;
15669;SDS011;18524;45.190;5.732;2024-02-04T10:06:45;49.67;;;26.17;;
15669;SDS011;18524;45.190;5.732;2024-02-04T10:11:36;43.63;;;24.40;;
15669;SDS011;18524;45.190;5.732;2024-02-04T10:16:26;44.47;;;24.70;;
15669;SDS011;18524;45.190;5.732;2024-02-04T10:21:18;42.70;;;25.07;;
15669;SDS011;18524;45.190;5.732;2024-02-04T10:26:09;42.57;;;24.63;;
15669;SDS011;18524;45.190;5.732;2024-02-04T10:31:00;44.07;;;26.00;;
15669;SDS011;18524;45.190;5.732;2024-02-04T10:35:50;43.90;;;25.97;;
15669;SDS011;18524;45.190;5.732;2024-02-04T10:40:41;48.53;;;27.03;;
15669;SDS011;18524;45.190;5.732;2024-02-04T10:45:32;45.87;;;26.90;;
15669;SDS011;18524;45.190;5.732;2024-02-04T10:50:24;44.43;;;27.57;;
15669;SDS011;18524;45.190;5.732;2024-02-04T10:55:16;46.20;;;26.80;;
15669;SDS011;18524;45.190;5.732;2024-02-04T11:00:10;44.63;;;26.90;;
15669;SDS011;18524;45.190;5.732;2024-02-04T11:05:02;44.27;;;27.20;;
15669;SDS011;18524;45.190;5.732;2024-02-04T11:09:54;43.30;;;26.47;;
15669;SDS011;18524;45.190;5.732;2024-02-04T11:14:48;44.17;;;26.87;;
15669;SDS011;18524;45.190;5.732;2024-02-04T11:30:33;43.90;;;25.63;;
15669;SDS011;18524;45.190;5.732;2024-02-04T11:35:24;41.53;;;25.23;;
15669;SDS011;18524;45.190;5.732;2024-02-04T11:40:15;43.17;;;25.97;;
15669;SDS011;18524;45.190;5.732;2024-02-04T11:45:09;42.37;;;25.60;;
15669;SDS011;18524;45.190;5.732;2024-02-04T11:50:01;40.37;;;24.40;;
15669;SDS011;18524;45.190;5.732;2024-02-04T11:54:52;41.60;;;25.43;;
15669;SDS011;18524;45.190;5.732;2024-02-04T11:59:42;43.53;;;26.07;;
15669;SDS011;18524;45.190;5.732;2024-02-04T12:04:34;41.73;;;24.40;;
15669;SDS011;18524;45.190;5.732;2024-02-04T12:09:26;43.80;;;25.43;;
15669;SDS011;18524;45.190;5.732;2024-02-04T12:14:16;41.17;;;25.43;;
15669;SDS011;18524;45.190;5.732;2024-02-04T12:19:08;39.47;;;24.13;;
15669;SDS011;18524;45.190;5.732;2024-02-04T12:23:59;37.43;;;22.80;;
15669;SDS011;18524;45.190;5.732;2024-02-04T12:28:50;37.60;;;22.40;;
15669;SDS011;18524;45.190;5.732;2024-02-04T12:33:40;32.43;;;20.37;;
15669;SDS011;18524;45.190;5.732;2024-02-04T12:38:30;30.83;;;18.73;;
15669;SDS011;18524;45.190;5.732;2024-02-04T12:43:21;31.70;;;19.83;;
15669;SDS011;18524;45.190;5.732;2024-02-04T12:48:14;30.40;;;19.40;;
15669;SDS011;18524;45.190;5.732;2024-02-04T12:53:07;35.47;;;22.30;;
15669;SDS011;18524;45.190;5.732;2024-02-04T12:58:08;35.37;;;21.63;;
15669;SDS011;18524;45.190;5.732;2024-02-04T13:03:02;39.50;;;24.20;;
15669;SDS011;18524;45.190;5.732;2024-02-04T13:08:00;36.00;;;22.50;;
15669;SDS011;18524;45.190;5.732;2024-02-04T13:13:02;36.67;;;22.93;;
15669;SDS011;18524;45.190;5.732;2024-02-04T13:17:52;50.77;;;31.00;;
15669;SDS011;18524;45.190;5.732;2024-02-04T13:22:43;52.50;;;31.37;;
15669;SDS011;18524;45.190;5.732;2024-02-04T13:27:34;47.70;;;28.60;;
15669;SDS011;18524;45.190;5.732;2024-02-04T13:32:25;53.77;;;30.23;;
15669;SDS011;18524;45.190;5.732;2024-02-04T13:37:15;52.30;;;31.90;;
15669;SDS011;18524;45.190;5.732;2024-02-04T13:42:06;56.90;;;33.77;;
15669;SDS011;18524;45.190;5.732;2024-02-04T13:46:56;56.27;;;34.30;;
15669;SDS011;18524;45.190;5.732;2024-02-04T13:51:46;56.93;;;33.87;;
15669;SDS011;18524;45.190;5.732;2024-02-04T13:56:37;56.83;;;33.00;;
15669;SDS011;18524;45.190;5.732;2024-02-04T14:01:27;53.10;;;33.33;;
15669;SDS011;18524;45.190;5.732;2024-02-04T14:06:17;56.73;;;34.20;;
15669;SDS011;18524;45.190;5.732;2024-02-04T14:11:08;56.73;;;33.93;;
15669;SDS011;18524;45.190;5.732;2024-02-04T14:15:58;65.03;;;35.03;;
15669;SDS011;18524;45.190;5.732;2024-02-04T14:20:49;62.80;;;36.80;;
15669;SDS011;18524;45.190;5.732;2024-02-04T14:25:39;68.97;;;38.83;;
15669;SDS011;18524;45.190;5.732;2024-02-04T14:30:29;63.93;;;37.63;;
15669;SDS011;18524;45.190;5.732;2024-02-04T14:35:20;65.57;;;39.00;;
15669;SDS011;18524;45.190;5.732;2024-02-04T14:40:10;65.70;;;39.10;;
15669;SDS011;18524;45.190;5.732;2024-02-04T14:45:01;64.77;;;36.63;;
15669;SDS011;18524;45.190;5.732;2024-02-04T14:49:52;67.33;;;37.50;;
15669;SDS011;18524;45.190;5.732;2024-02-04T14:54:43;64.33;;;37.40;;
15669;SDS011;18524;45.190;5.732;2024-02-04T14:59:34;60.27;;;35.50;;
15669;SDS011;18524;45.190;5.732;2024-02-04T15:04:27;65.40;;;35.90;;
15669;SDS011;18524;45.190;5.732;2024-02-04T15:09:18;64.50;;;37.13;;
15669;SDS011;18524;45.190;5.732;2024-02-04T15:14:09;70.17;;;38.43;;
15669;SDS011;18524;45.190;5.732;2024-02-04T15:19:00;61.77;;;36.17;;
15669;SDS011;18524;45.190;5.732;2024-02-04T15:23:50;64.27;;;35.73;;
15669;SDS011;18524;45.190;5.732;2024-02-04T15:28:41;57.47;;;33.93;;
15669;SDS011;18524;45.190;5.732;2024-02-04T15:33:33;63.03;;;33.97;;
15669;SDS011;18524;45.190;5.732;2024-02-04T15:38:24;57.60;;;33.33;;
15669;SDS011;18524;45.190;5.732;2024-02-04T15:43:14;55.53;;;32.37;;
15669;SDS011;18524;45.190;5.732;2024-02-04T15:48:05;58.97;;;32.37;;
15669;SDS011;18524;45.190;5.732;2024-02-04T15:52:56;56.27;;;33.03;;
15669;SDS011;18524;45.190;5.732;2024-02-04T15:57:50;54.00;;;31.73;;
15669;SDS011;18524;45.190;5.732;2024-02-04T16:02:42;55.40;;;32.67;;
15669;SDS011;18524;45.190;5.732;2024-02-04T16:07:34;58.97;;;34.63;;
15669;SDS011;18524;45.190;5.732;2024-02-04T16:12:25;57.20;;;32.83;;
15669;SDS011;18524;45.190;5.732;2024-02-04T16:17:16;55.80;;;31.97;;
15669;SDS011;18524;45.190;5.732;2024-02-04T16:22:08;56.17;;;32.23;;
15669;SDS011;18524;45.190;5.732;2024-02-04T16:26:58;56.67;;;32.97;;
15669;SDS011;18524;45.190;5.732;2024-02-04T16:31:49;54.30;;;31.83;;
15669;SDS011;18524;45.190;5.732;2024-02-04T16:36:43;56.23;;;31.73;;
15669;SDS011;18524;45.190;5.732;2024-02-04T16:41:33;53.27;;;30.47;;
15669;SDS011;18524;45.190;5.732;2024-02-04T16:46:23;53.87;;;30.80;;
15669;SDS011;18524;45.190;5.732;2024-02-04T16:51:14;62.23;;;32.73;;
15669;SDS011;18524;45.190;5.732;2024-02-04T16:56:04;64.13;;;34.83;;
15669;SDS011;18524;45.190;5.732;2024-02-04T17:00:55;60.07;;;34.23;;
15669;SDS011;18524;45.190;5.732;2024-02-04T17:05:45;66.10;;;36.23;;
15669;SDS011;18524;45.190;5.732;2024-02-04T17:10:36;62.37;;;33.80;;
15669;SDS011;18524;45.190;5.732;2024-02-04T17:15:27;66.70;;;34.57;;
15669;SDS011;18524;45.190;5.732;2024-02-04T17:20:18;61.80;;;32.83;;
15669;SDS011;18524;45.190;5.732;2024-02-04T17:25:17;56.80;;;30.53;;
15669;SDS011;18524;45.190;5.732;2024-02-04T17:30:12;56.47;;;30.47;;
15669;SDS011;18524;45.190;5.732;2024-02-04T17:35:05;56.67;;;30.60;;
15669;SDS011;18524;45.190;5.732;2024-02-04T17:39:58;52.33;;;29.40;;
15669;SDS011;18524;45.190;5.732;2024-02-04T17:44:48;48.90;;;27.63;;
15669;SDS011;18524;45.190;5.732;2024-02-04T17:49:39;52.53;;;29.53;;
15669;SDS011;18524;45.190;5.732;2024-02-04T17:54:30;45.90;;;26.93;;
15669;SDS011;18524;45.190;5.732;2024-02-04T17:59:22;55.60;;;31.47;;
15669;SDS011;18524;45.190;5.732;2024-02-04T18:04:12;54.73;;;30.07;;
15669;SDS011;18524;45.190;5.732;2024-02-04T18:09:02;47.67;;;28.63;;
15669;SDS011;18524;45.190;5.732;2024-02-04T18:13:53;47.77;;;27.60;;
15669;SDS011;18524;45.190;5.732;2024-02-04T18:18:43;50.37;;;28.33;;
15669;SDS011;18524;45.190;5.732;2024-02-04T18:23:34;46.47;;;27.83;;
15669;SDS011;18524;45.190;5.732;2024-02-04T18:28:24;47.37;;;26.93;;
15669;SDS011;18524;45.190;5.732;2024-02-04T18:33:14;48.27;;;29.43;;
15669;SDS011;18524;45.190;5.732;2024-02-04T18:38:05;51.73;;;30.53;;
15669;SDS011;18524;45.190;5.732;2024-02-04T18:42:55;99.70;;;57.07;;
15669;SDS011;18524;45.190;5.732;2024-02-04T18:47:47;59.23;;;33.67;;
15669;SDS011;18524;45.190;5.732;2024-02-04T18:52:38;60.67;;;35.10;;
15669;SDS011;18524;45.190;5.732;2024-02-04T18:57:28;54.37;;;33.50;;
15669;SDS011;18524;45.190;5.732;2024-02-04T19:02:18;55.03;;;32.53;;
15669;SDS011;18524;45.190;5.732;2024-02-04T19:07:09;53.83;;;31.60;;
15669;SDS011;18524;45.190;5.732;2024-02-04T19:11:59;55.07;;;32.93;;
15669;SDS011;18524;45.190;5.732;2024-02-04T19:16:50;64.80;;;37.30;;
15669;SDS011;18524;45.190;5.732;2024-02-04T19:21:42;72.60;;;46.90;;
15669;SDS011;18524;45.190;5.732;2024-02-04T19:26:34;51.73;;;29.67;;
15669;SDS011;18524;45.190;5.732;2024-02-04T19:31:24;57.97;;;34.50;;
15669;SDS011;18524;45.190;5.732;2024-02-04T19:36:14;61.53;;;33.93;;
15669;SDS011;18524;45.190;5.732;2024-02-04T19:41:05;50.00;;;30.37;;
15669;SDS011;18524;45.190;5.732;2024-02-04T19:45:56;52.43;;;30.50;;
15669;SDS011;18524;45.190;5.732;2024-02-04T19:50:47;60.53;;;35.23;;
15669;SDS011;18524;45.190;5.732;2024-02-04T19:55:37;52.00;;;31.53;;
15669;SDS011;18524;45.190;5.732;2024-02-04T20:00:27;52.23;;;29.13;;
15669;SDS011;18524;45.190;5.732;2024-02-04T20:05:18;45.97;;;27.40;;
15669;SDS011;18524;45.190;5.732;2024-02-04T20:10:09;49.63;;;29.20;;
15669;SDS011;18524;45.190;5.732;2024-02-04T20:14:59;52.10;;;29.33;;
15669;SDS011;18524;45.190;5.732;2024-02-04T20:19:50;53.90;;;32.97;;
15669;SDS011;18524;45.190;5.732;2024-02-04T20:24:41;56.03;;;32.97;;
15669;SDS011;18524;45.190;5.732;2024-02-04T20:29:32;53.00;;;29.40;;
15669;SDS011;18524;45.190;5.732;2024-02-04T20:34:23;51.03;;;29.80;;
15669;SDS011;18524;45.190;5.732;2024-02-04T20:39:14;58.27;;;31.07;;
15669;SDS011;18524;45.190;5.732;2024-02-04T20:44:05;51.50;;;28.77;;
15669;SDS011;18524;45.190;5.732;2024-02-04T20:48:56;53.73;;;29.87;;
15669;SDS011;18524;45.190;5.732;2024-02-04T20:53:47;62.87;;;33.93;;
15669;SDS011;18524;45.190;5.732;2024-02-04T20:58:37;147.67;;;81.93;;
15669;SDS011;18524;45.190;5.732;2024-02-04T21:03:28;52.40;;;29.50;;
15669;SDS011;18524;45.190;5.732;2024-02-04T21:08:18;52.17;;;28.90;;
15669;SDS011;18524;45.190;5.732;2024-02-04T21:13:09;52.13;;;29.73;;
15669;SDS011;18524;45.190;5.732;2024-02-04T21:17:59;54.30;;;31.33;;
15669;SDS011;18524;45.190;5.732;2024-02-04T21:22:50;58.13;;;32.07;;
15669;SDS011;18524;45.190;5.732;2024-02-04T21:27:40;58.67;;;31.70;;
15669;SDS011;18524;45.190;5.732;2024-02-04T21:32:31;63.73;;;32.20;;
15669;SDS011;18524;45.190;5.732;2024-02-04T21:37:22;60.40;;;32.60;;
15669;SDS011;18524;45.190;5.732;2024-02-04T21:42:12;65.33;;;33.27;;
15669;SDS011;18524;45.190;5.732;2024-02-04T21:47:03;61.73;;;31.40;;
15669;SDS011;18524;45.190;5.732;2024-02-04T21:51:53;61.93;;;31.13;;
15669;SDS011;18524;45.190;5.732;2024-02-04T21:56:44;61.90;;;30.77;;
15669;SDS011;18524;45.190;5.732;2024-02-04T22:01:34;62.23;;;29.97;;
15669;SDS011;18524;45.190;5.732;2024-02-04T22:06:25;74.53;;;36.90;;
15669;SDS011;18524;45.190;5.732;2024-02-04T22:11:16;62.30;;;31.23;;
15669;SDS011;18524;45.190;5.732;2024-02-04T22:16:07;56.57;;;29.53;;
15669;SDS011;18524;45.190;5.732;2024-02-04T22:20:57;59.93;;;30.10;;
15669;SDS011;18524;45.190;5.732;2024-02-04T22:25:48;57.53;;;29.20;;
15669;SDS011;18524;45.190;5.732;2024-02-04T22:30:42;55.70;;;29.07;;
15669;SDS011;18524;45.190;5.732;2024-02-04T22:35:36;51.30;;;27.37;;
15669;SDS011;18524;45.190;5.732;2024-02-04T22:40:26;61.77;;;31.23;;
15669;SDS011;18524;45.190;5.732;2024-02-04T22:45:17;59.50;;;31.23;;
15669;SDS011;18524;45.190;5.732;2024-02-04T22:50:07;57.73;;;32.53;;
15669;SDS011;18524;45.190;5.732;2024-02-04T22:54:57;56.83;;;29.93;;
15669;SDS011;18524;45.190;5.732;2024-02-04T22:59:48;63.13;;;30.47;;
15669;SDS011;18524;45.190;5.732;2024-02-04T23:04:39;73.00;;;36.20;;
15669;SDS011;18524;45.190;5.732;2024-02-04T23:09:30;52.07;;;27.43;;
15669;SDS011;18524;45.190;5.732;2024-02-04T23:14:20;53.57;;;27.23;;
15669;SDS011;18524;45.190;5.732;2024-02-04T23:19:10;59.63;;;30.03;;
15669;SDS011;18524;45.190;5.732;2024-02-04T23:24:01;58.70;;;30.33;;
15669;SDS011;18524;45.190;5.732;2024-02-04T23:28:52;58.97;;;30.83;;
15669;SDS011;18524;45.190;5.732;2024-02-04T23:33:42;51.70;;;27.13;;
15669;SDS011;18524;45.190;5.732;2024-02-04T23:38:32;51.23;;;27.30;;
15669;SDS011;18524;45.190;5.732;2024-02-04T23:43:23;52.73;;;27.63;;
15669;SDS011;18524;45.190;5.732;2024-02-04T23:48:13;53.93;;;28.67;;
15669;SDS011;18524;45.190;5.732;2024-02-04T23:53:04;51.67;;;27.07;;
15669;SDS011;18524;45.190;5.732;2024-02-04T23:57:57;56.07;;;28.23;;
